東京/横田 の空港の天気 - METARとTAF

横田飛行場 ( RJTY / OKO ) - 東京都福生市
飛行場実況気象(Metar)
観測時間07/18 13:56 JST (07/18 04:56 UTC)
風向・風速南南西 6m/s 瞬間風速10m/s
視程10km以上
天気現象
なし
気温35.3℃
湿度55%
気圧1009.8hPa
METARRJTY 180456Z AUTO 20012G20KT 10SM CLR 35/25 A2984 RMK AO2 LTG DSNT W SLP098 T03530248 FZRANO $
過去の天気等 Google飛行場航空写真 Wunderground天気予報

過去48時間のMETAR

飛行場予報(TAF)
発表時間: 7/18 13:30 JST (7/18 04:30 UTC)
予報対象時間: 18日6時 JST ~ 19日12時 JST
風向・風速南南東 6m/s
視程9000m
天気現象煙霧
全天の4割程度の雲 雲底高度 910m
全天の4割程度の雲 雲底高度 7620m
18日15時 JST ~ 18日19時 JST に一時的に
風向・風速南 6m/s 瞬間風速 9m/s
視程8000m
天気現象煙霧 周辺で雷
全天の4割程度の積乱雲 雲底高度 910m
18日19時 JST ~ 18日20時 JST に徐々に
風向・風速不定 3m/s
視程10km以上
天気現象運行に影響にある天気現象が終了
全天の4割程度の雲 雲底高度 1220m
19日2時 JST ~ 19日7時 JST に一時的に
視程6000m
天気現象もや
全天の8割程度の雲 雲底高度 460m
TAF AMD RJTY 180430Z 1721/1903 15012KT 9000 HZ SCT030 SCT250 QNH2984INS
TEMPO 1806/1810 18012G18KT 8000 HZ VCTS SCT030CB
BECMG 1810/1811 VRB06KT 9999 NSW SCT040 QNH2986INS
TEMPO 1817/1822 6000 BR BKN015 TX36/1805Z TN27/1820Z
日本の空港のMETAR・TAFへのリンク

RJTT 東京国際空港
RJAA 新東京国際空港
RJBB 関西国際空港
RJOO 大阪空港
RJGG 中部国際空港
RJCC 新千歳空港
RJFF 福岡空港
ROAH 那覇空港


RJEC 旭川空港
RJCH 函館空港
RJCK 釧路空港
RJCM 女満別空港
RJCB 帯広空港
RJSA 青森空港
RJSS 仙台空港
RJSK 秋田空港
RJSF 福島空港
RJAH 茨城空港
RJSN 新潟空港
RJNT 富山空港
RJNK 小松飛行場
RJNS 静岡空港
RJOH 美保飛行場
RJOC 出雲空港
RJOB 岡山空港
RJOA 広島空港
RJOI 岩国飛行場
RJOT 高松空港
RJOM 松山空港
RJOK 高知空港
RJFR 北九州空港
RJFT 熊本空港
RJFU 長崎空港
RJFS 佐賀空港
RJFO 大分空港
RJFM 宮崎空港
RJFK 鹿児島空港
ROIG 石垣島空港
RJTY 横田飛行場
ROTM 普天間飛行場
RODN 嘉手納飛行場